Time;durP1;ratioP1;P1;durP2;ratioP2;P2;SDS_P1;SDS_P2;PMS_P1;PMS_P2;Temp;Humidity;BMP_temperature;BMP_pressure;BME280_temperature;BME280_humidity;BME280_pressure;Samples;Min_cycle;Max_cycle;Signal;HPM_P1;HPM_P2
2021/12/09 00:02:12;;;;;;;34.53;18.98;;;;;;;-3.46;79.17;92999.56;5099789;28;20103;-47
2021/12/09 00:04:38;;;;;;;36.50;20.93;;;;;;;-3.39;80.00;92984.94;5100006;28;20485;-51
2021/12/09 00:07:04;;;;;;;60.67;32.85;;;;;;;-3.40;79.40;93002.34;5099790;27;20478;-48
2021/12/09 00:09:31;;;;;;;61.60;34.65;;;;;;;-3.28;78.98;93002.03;5101185;28;20028;-48
2021/12/09 00:11:57;;;;;;;49.40;26.15;;;;;;;-3.32;77.65;92976.44;5102028;28;20055;-47
2021/12/09 00:14:26;;;;;;;50.92;27.77;;;;;;;-3.01;76.28;92994.75;5103801;28;20054;-47
2021/12/09 00:17:00;;;;;;;52.22;28.67;;;;;;;-2.96;76.74;92994.06;5103018;28;20038;-47
2021/12/09 00:19:26;;;;;;;45.47;26.05;;;;;;;-2.91;77.77;92993.38;5103539;28;20024;-46
2021/12/09 00:21:52;;;;;;;65.22;33.60;;;;;;;-3.08;77.68;92988.53;5103621;28;20042;-46
2021/12/09 00:24:17;;;;;;;63.40;33.50;;;;;;;-3.32;78.32;92998.03;5100115;28;20032;-46
2021/12/09 00:26:46;;;;;;;51.55;28.15;;;;;;;-3.34;79.04;93009.31;5103384;28;20106;-48
2021/12/09 00:29:13;;;;;;;51.33;26.23;;;;;;;-3.27;79.02;92991.97;5101641;28;20031;-44
2021/12/09 00:31:38;;;;;;;50.15;27.73;;;;;;;-3.07;77.22;92992.72;5102580;28;20035;-45
2021/12/09 00:34:04;;;;;;;44.55;24.45;;;;;;;-3.08;77.81;92999.34;5103288;28;20148;-47
2021/12/09 00:36:44;;;;;;;47.47;25.17;;;;;;;-3.08;78.15;92996.63;5101551;28;20034;-45
2021/12/09 00:39:11;;;;;;;48.22;24.85;;;;;;;-3.08;78.50;92996.63;5102439;28;20119;-45
2021/12/09 00:41:37;;;;;;;56.47;25.95;;;;;;;-3.03;78.05;92994.47;5101806;28;20116;-47
2021/12/09 00:44:03;;;;;;;48.88;23.83;;;;;;;-2.85;78.23;92988.78;5101121;28;20466;-43
2021/12/09 00:46:30;;;;;;;49.55;24.35;;;;;;;-2.83;77.66;92987.09;5100692;28;20019;-45
2021/12/09 00:48:56;;;;;;;47.75;24.20;;;;;;;-2.87;78.01;92978.47;5099894;28;20099;-45
2021/12/09 00:51:21;;;;;;;49.22;24.75;;;;;;;-2.84;78.84;92980.22;5101914;28;20023;-45
2021/12/09 00:53:47;;;;;;;47.70;26.55;;;;;;;-2.82;79.33;92968.94;5100073;28;20028;-44
2021/12/09 00:56:13;;;;;;;48.35;25.40;;;;;;;-2.84;78.70;92966.72;5101903;28;20024;-46
2021/12/09 00:58:41;;;;;;;54.85;25.95;;;;;;;-2.74;79.32;92972.69;5099848;28;20557;-46
2021/12/09 01:01:07;;;;;;;60.47;30.67;;;;;;;-2.82;79.48;92974.34;5099048;28;20028;-47
2021/12/09 01:03:35;;;;;;;49.08;25.05;;;;;;;-2.77;77.79;92944.66;5101711;28;20039;-48
2021/12/09 01:06:00;;;;;;;49.40;26.25;;;;;;;-2.98;78.20;92939.78;5097501;28;20031;-48
2021/12/09 01:08:26;;;;;;;53.33;24.83;;;;;;;-2.89;78.92;92932.28;5102276;28;20031;-47
2021/12/09 01:10:52;;;;;;;55.80;28.10;;;;;;;-2.70;78.45;92932.69;5102676;28;20034;-46
2021/12/09 01:13:17;;;;;;;47.78;25.60;;;;;;;-2.65;78.30;92937.44;5105195;28;20047;-46
2021/12/09 01:15:43;;;;;;;54.00;27.65;;;;;;;-2.64;77.91;92925.41;5099444;28;20032;-49
2021/12/09 01:18:08;;;;;;;43.30;23.38;;;;;;;-2.55;77.48;92917.13;5100498;28;20055;-47
2021/12/09 01:20:34;;;;;;;42.25;23.38;;;;;;;-3.11;77.29;92903.06;5100506;28;20081;-48
2021/12/09 01:23:02;;;;;;;42.33;22.80;;;;;;;-2.92;77.89;92897.38;5101851;28;20031;-48
2021/12/09 01:25:28;;;;;;;43.63;23.20;;;;;;;-2.88;78.94;92892.50;5100178;28;20077;-46
2021/12/09 01:27:56;;;;;;;58.72;29.48;;;;;;;-2.77;79.74;92892.63;5099882;27;20054;-49
2021/12/09 01:30:23;;;;;;;50.73;26.03;;;;;;;-2.74;80.08;92899.75;5100728;28;20031;-47
2021/12/09 01:32:54;;;;;;;50.30;25.25;;;;;;;-2.77;80.07;92898.75;5099255;28;20123;-48
2021/12/09 01:35:23;;;;;;;67.88;27.70;;;;;;;-2.79;80.20;92881.53;5099926;28;20050;-45
2021/12/09 01:37:52;;;;;;;58.55;24.00;;;;;;;-2.64;80.33;92895.69;5100504;28;20038;-46
2021/12/09 01:40:18;;;;;;;60.85;25.45;;;;;;;-2.60;79.80;92896.22;5096798;28;20040;-47
2021/12/09 01:42:44;;;;;;;70.88;21.42;;;;;;;-2.60;80.27;92896.94;5100231;28;20035;-44
2021/12/09 01:45:10;;;;;;;68.53;20.35;;;;;;;-2.66;81.00;92912.38;5097140;28;20702;-45
2021/12/09 01:47:35;;;;;;;58.80;22.65;;;;;;;-2.72;81.79;92918.94;5100179;28;20080;-49
2021/12/09 01:50:01;;;;;;;66.63;24.95;;;;;;;-2.75;81.75;92926.03;5097833;28;20027;-48
2021/12/09 01:52:26;;;;;;;68.03;24.88;;;;;;;-2.81;81.78;92924.47;5098597;28;20110;-52
2021/12/09 01:54:52;;;;;;;60.97;27.40;;;;;;;-2.95;82.15;92936.13;5099202;28;20042;-50
2021/12/09 01:57:18;;;;;;;75.07;25.73;;;;;;;-3.11;82.40;92927.38;5097134;28;20027;-47
2021/12/09 01:59:44;;;;;;;62.45;21.50;;;;;;;-3.21;83.04;92936.09;5102571;28;20035;-52
2021/12/09 02:02:09;;;;;;;84.07;21.67;;;;;;;-3.25;83.69;92933.56;5100853;28;20024;-52
2021/12/09 02:04:35;;;;;;;50.33;19.10;;;;;;;-3.09;83.94;92933.03;5101510;28;20124;-49
2021/12/09 02:07:01;;;;;;;42.72;15.75;;;;;;;-2.93;83.30;92944.50;5101077;28;20022;-50
2021/12/09 02:09:26;;;;;;;50.40;13.93;;;;;;;-2.89;82.83;92939.63;5100107;28;20565;-50
2021/12/09 02:11:52;;;;;;;47.45;15.35;;;;;;;-2.93;83.16;92936.41;5099302;28;20080;-48
2021/12/09 02:14:17;;;;;;;40.03;12.93;;;;;;;-2.84;82.83;92947.06;5097280;28;20020;-51
2021/12/09 02:16:43;;;;;;;44.63;17.38;;;;;;;-2.99;83.70;92941.00;5100222;28;20047;-50
2021/12/09 02:19:11;;;;;;;38.78;16.73;;;;;;;-2.94;83.93;92948.41;5098781;28;20113;-48
2021/12/09 02:21:37;;;;;;;89.07;24.98;;;;;;;-2.83;84.17;92951.97;5098899;28;20028;-49
2021/12/09 02:24:06;;;;;;;77.38;28.88;;;;;;;-2.74;83.98;92957.25;5098823;28;20481;-49
2021/12/09 02:26:36;;;;;;;60.92;14.63;;;;;;;-2.68;83.22;92949.19;5100960;28;20084;-51
2021/12/09 02:29:04;;;;;;;83.15;15.50;;;;;;;-2.78;83.33;92953.25;5096886;28;20133;-49
2021/12/09 02:31:31;;;;;;;38.85;14.70;;;;;;;-2.71;82.51;92958.25;5097382;28;20102;-50
2021/12/09 02:33:57;;;;;;;41.72;11.73;;;;;;;-2.93;83.07;92939.84;5099977;28;20114;-47
2021/12/09 02:36:22;;;;;;;54.20;17.83;;;;;;;-2.93;82.98;92922.91;5098778;28;20023;-47
2021/12/09 02:38:49;;;;;;;55.38;19.35;;;;;;;-2.87;82.94;92929.84;5098280;28;20550;-50
2021/12/09 02:41:19;;;;;;;36.25;16.95;;;;;;;-2.87;82.76;92929.09;5100672;28;20474;-47
2021/12/09 02:43:55;;;;;;;28.70;15.40;;;;;;;-2.71;82.24;92933.94;5099517;28;20472;-50
2021/12/09 02:46:23;;;;;;;26.55;13.40;;;;;;;-2.72;82.80;92935.13;5098737;28;20061;-48
2021/12/09 02:48:49;;;;;;;33.40;13.00;;;;;;;-2.73;82.47;92931.69;5105028;28;20031;-50
2021/12/09 02:51:14;;;;;;;32.50;14.20;;;;;;;-2.84;82.55;92922.75;5103267;28;20436;-51
2021/12/09 02:53:40;;;;;;;27.02;12.45;;;;;;;-2.87;82.63;92921.75;5103126;28;20103;-51
2021/12/09 02:56:06;;;;;;;72.30;15.32;;;;;;;-2.91;82.22;92923.91;5104367;28;20059;-48
2021/12/09 02:58:31;;;;;;;38.85;13.65;;;;;;;-2.78;82.92;92935.09;5102938;28;20028;-53
2021/12/09 03:01:14;;;;;;;34.58;14.95;;;;;;;-2.73;82.08;92928.28;5102379;28;20083;-50
2021/12/09 03:03:52;;;;;;;32.25;14.15;;;;;;;-2.93;80.76;92907.44;5103245;28;20046;-49
2021/12/09 03:06:25;;;;;;;137.90;46.15;;;;;;;-3.09;80.47;92933.03;5104012;28;20032;-48
2021/12/09 03:08:51;;;;;;;167.77;58.95;;;;;;;-3.16;80.66;92925.34;5102199;28;20059;-50
2021/12/09 03:11:19;;;;;;;46.45;20.10;;;;;;;-3.30;80.80;92942.38;5102404;28;20062;-48
2021/12/09 03:13:46;;;;;;;61.28;27.65;;;;;;;-3.43;79.59;92941.22;5103612;28;20035;-50
2021/12/09 03:16:12;;;;;;;31.27;18.23;;;;;;;-3.37;78.32;92945.47;5098016;28;20506;-51
2021/12/09 03:18:40;;;;;;;23.13;12.27;;;;;;;-3.57;79.02;92942.75;5104087;28;20080;-47
2021/12/09 03:21:19;;;;;;;33.08;9.93;;;;;;;-3.78;79.14;92959.34;5102646;27;20051;-50
2021/12/09 03:23:45;;;;;;;20.55;11.05;;;;;;;-3.91;79.55;92956.97;5102611;28;20040;-47
2021/12/09 03:26:11;;;;;;;26.30;12.38;;;;;;;-4.09;79.88;92957.19;5098721;28;20413;-49
2021/12/09 03:28:37;;;;;;;24.75;11.65;;;;;;;-4.26;80.93;92958.88;5101367;28;20024;-50
2021/12/09 03:31:03;;;;;;;65.95;16.13;;;;;;;-4.37;81.79;92958.69;5100170;28;20032;-49
2021/12/09 03:33:28;;;;;;;33.47;15.00;;;;;;;-4.27;82.22;92963.53;5102662;28;20061;-48
2021/12/09 03:36:03;;;;;;;73.93;26.27;;;;;;;-4.18;81.50;92954.63;5102457;28;20055;-49
2021/12/09 03:38:29;;;;;;;32.50;14.93;;;;;;;-4.23;81.70;92942.53;5103095;28;20471;-49
2021/12/09 03:40:55;;;;;;;38.63;14.57;;;;;;;-4.20;82.58;92936.19;5103113;28;20035;-49
2021/12/09 03:43:21;;;;;;;47.85;13.07;;;;;;;-4.09;82.84;92919.44;5098519;27;20032;-48
2021/12/09 03:45:50;;;;;;;42.83;11.35;;;;;;;-4.10;82.98;92918.72;5102274;28;20047;-49
2021/12/09 03:48:16;;;;;;;30.95;11.93;;;;;;;-4.16;83.50;92909.78;5103931;28;20437;-47
2021/12/09 03:50:43;;;;;;;52.25;16.17;;;;;;;-4.20;84.10;92920.03;5101773;28;20515;-50
2021/12/09 03:53:09;;;;;;;50.10;14.43;;;;;;;-4.33;84.11;92910.78;5099456;28;20027;-49
2021/12/09 03:55:34;;;;;;;74.53;15.40;;;;;;;-4.26;84.43;92910.38;5103223;28;20024;-55
2021/12/09 03:58:01;;;;;;;26.45;12.98;;;;;;;-4.09;83.55;92911.34;5102965;28;20485;-50
2021/12/09 04:00:28;;;;;;;21.75;11.15;;;;;;;-3.97;83.46;92924.56;5099664;28;20035;-48
2021/12/09 04:02:54;;;;;;;22.52;9.35;;;;;;;-3.93;82.08;92932.44;5101942;28;20500;-48
2021/12/09 04:05:20;;;;;;;25.20;11.48;;;;;;;-4.32;81.34;92936.50;5100114;28;20059;-49
2021/12/09 04:07:45;;;;;;;43.53;16.08;;;;;;;-4.35;81.19;92946.25;5100179;28;20062;-48
2021/12/09 04:10:11;;;;;;;32.92;13.27;;;;;;;-4.33;80.91;92957.31;5100239;28;20078;-48
2021/12/09 04:12:36;;;;;;;36.63;14.02;;;;;;;-4.36;80.25;92946.72;5100540;28;20474;-47
2021/12/09 04:15:03;;;;;;;37.55;15.13;;;;;;;-4.25;79.54;92949.59;5100636;28;20059;-47
2021/12/09 04:17:29;;;;;;;30.80;11.75;;;;;;;-4.36;79.26;92938.63;5100372;28;20080;-50
2021/12/09 04:19:55;;;;;;;29.80;15.60;;;;;;;-4.86;79.22;92911.63;5101330;28;20102;-48
2021/12/09 04:22:22;;;;;;;22.50;13.63;;;;;;;-4.39;80.26;92953.03;5100235;28;20513;-49
2021/12/09 04:24:49;;;;;;;31.48;14.95;;;;;;;-4.25;80.01;92957.69;5100125;28;20438;-50
2021/12/09 04:27:14;;;;;;;24.05;12.55;;;;;;;-4.22;79.15;92962.16;5106261;28;20050;-47
2021/12/09 04:29:40;;;;;;;19.90;11.55;;;;;;;-4.19;78.55;92958.50;5099107;28;20083;-48
2021/12/09 04:32:06;;;;;;;24.15;12.93;;;;;;;-4.31;78.62;92973.75;5102034;28;20027;-49
2021/12/09 04:34:31;;;;;;;19.48;10.20;;;;;;;-4.49;79.53;92957.78;5096910;28;20042;-47
2021/12/09 04:36:58;;;;;;;20.38;10.07;;;;;;;-4.21;79.37;92998.66;5098886;28;20028;-49
2021/12/09 04:39:24;;;;;;;17.35;9.23;;;;;;;-4.40;78.65;92986.59;5097605;27;20099;-52
2021/12/09 04:41:50;;;;;;;25.35;11.88;;;;;;;-4.35;77.40;93008.22;5102571;28;20034;-46
2021/12/09 04:44:16;;;;;;;20.90;13.45;;;;;;;-4.21;75.90;93004.81;5100691;28;20035;-47
2021/12/09 04:46:42;;;;;;;17.02;10.02;;;;;;;-4.17;74.28;93001.91;5101918;28;20030;-46
2021/12/09 04:49:08;;;;;;;18.02;10.10;;;;;;;-4.39;75.12;92999.59;5099328;28;20020;-48
2021/12/09 04:51:34;;;;;;;41.58;11.55;;;;;;;-4.37;75.33;92991.03;5099382;28;20020;-48
2021/12/09 04:54:00;;;;;;;28.50;13.32;;;;;;;-4.46;76.90;92978.38;5098279;28;20417;-48
2021/12/09 04:56:26;;;;;;;37.15;15.75;;;;;;;-4.40;77.19;92995.41;5103568;28;20500;-48
2021/12/09 04:58:51;;;;;;;28.55;14.23;;;;;;;-4.47;76.82;92998.47;5100872;28;20024;-47
2021/12/09 05:01:18;;;;;;;29.10;14.70;;;;;;;-4.33;75.08;93000.41;5098840;28;20023;-48
2021/12/09 05:03:47;;;;;;;23.88;15.50;;;;;;;-4.40;73.75;92971.16;5101496;28;20036;-48
2021/12/09 05:06:12;;;;;;;44.88;20.42;;;;;;;-4.28;73.61;92986.31;5102917;28;20016;-46
2021/12/09 05:08:44;;;;;;;47.55;20.00;;;;;;;-4.39;75.06;92988.06;5100565;28;20024;-46
2021/12/09 05:11:16;;;;;;;31.52;15.25;;;;;;;-4.75;75.66;92987.22;5101104;28;20088;-44
2021/12/09 05:13:41;;;;;;;40.63;17.10;;;;;;;-4.82;75.22;92992.94;5101102;28;20440;-46
2021/12/09 05:16:09;;;;;;;38.63;19.00;;;;;;;-4.73;75.58;92982.09;5099960;28;20031;-45
2021/12/09 05:18:37;;;;;;;76.60;36.20;;;;;;;-4.69;75.00;92979.97;5099930;28;20031;-45
2021/12/09 05:21:04;;;;;;;58.78;21.63;;;;;;;-4.85;76.75;92996.56;5098389;28;20442;-45
2021/12/09 05:23:30;;;;;;;68.60;23.88;;;;;;;-4.78;77.35;93000.84;5100727;28;20038;-46
2021/12/09 05:25:55;;;;;;;43.85;16.27;;;;;;;-4.93;76.57;93006.19;5103076;28;20019;-47
2021/12/09 05:28:30;;;;;;;61.38;16.73;;;;;;;-5.32;76.92;93001.97;5101282;28;20081;-46
2021/12/09 05:33:39;;;;;;;51.58;19.58;;;;;;;-5.38;77.76;93001.13;5098567;28;20048;-48
2021/12/09 05:36:05;;;;;;;64.43;15.25;;;;;;;-5.49;78.49;92998.22;5100081;28;20099;-45
2021/12/09 05:38:30;;;;;;;47.90;13.00;;;;;;;-5.77;79.44;92988.78;5100999;28;20024;-46
2021/12/09 05:40:56;;;;;;;26.17;11.25;;;;;;;-5.72;79.91;92998.94;5099138;28;20031;-46
2021/12/09 05:43:22;;;;;;;48.33;19.17;;;;;;;-5.49;79.50;92998.22;5098120;28;20024;-46
2021/12/09 05:45:48;;;;;;;49.38;21.25;;;;;;;-5.52;80.13;92999.09;5100720;28;20093;-47
2021/12/09 05:48:15;;;;;;;24.88;11.93;;;;;;;-5.54;80.15;92990.75;5100353;28;20016;-45
2021/12/09 05:50:42;;;;;;;28.42;11.98;;;;;;;-5.42;79.52;93003.25;5099875;28;20466;-44
2021/12/09 05:53:07;;;;;;;26.23;11.35;;;;;;;-5.22;77.34;93003.44;5098649;28;20047;-46
2021/12/09 05:55:33;;;;;;;22.48;11.45;;;;;;;-5.50;76.38;92959.81;5101911;28;20062;-45
2021/12/09 05:57:59;;;;;;;27.08;12.50;;;;;;;-5.30;76.98;92999.56;5098655;28;20115;-45
2021/12/09 06:00:25;;;;;;;39.25;20.63;;;;;;;-5.24;77.15;93011.19;5101550;28;20084;-44
2021/12/09 06:02:50;;;;;;;30.42;16.17;;;;;;;-5.17;78.37;93024.31;5096915;28;20077;-46
2021/12/09 06:05:16;;;;;;;29.25;13.25;;;;;;;-5.28;78.39;92999.88;5096456;28;20563;-45
2021/12/09 06:07:42;;;;;;;28.65;15.95;;;;;;;-5.09;77.95;93009.28;5099359;28;20387;-44
2021/12/09 06:10:08;;;;;;;35.13;17.50;;;;;;;-5.08;77.32;93010.03;5097325;28;20432;-45
2021/12/09 06:12:35;;;;;;;37.25;17.52;;;;;;;-4.88;76.88;93021.72;5101218;28;20526;-45
2021/12/09 06:15:01;;;;;;;28.55;14.20;;;;;;;-5.09;75.53;93001.22;5098312;28;20035;-45
2021/12/09 06:17:26;;;;;;;27.58;13.77;;;;;;;-4.99;75.81;92997.28;5098797;28;20074;-48
2021/12/09 06:19:52;;;;;;;32.88;15.40;;;;;;;-5.29;76.07;92989.56;5099640;28;20051;-49
2021/12/09 06:22:17;;;;;;;29.40;13.60;;;;;;;-5.39;76.74;92984.25;5102804;28;20084;-51
2021/12/09 06:24:44;;;;;;;42.22;14.50;;;;;;;-5.26;76.46;92978.63;5105459;28;20024;-47
2021/12/09 06:27:11;;;;;;;46.90;17.45;;;;;;;-5.09;77.11;92995.84;5103030;28;20051;-49
2021/12/09 06:29:36;;;;;;;41.17;20.92;;;;;;;-4.95;75.26;93002.47;5105484;28;20542;-54
2021/12/09 06:32:02;;;;;;;40.65;18.70;;;;;;;-4.93;75.19;92989.28;5102392;27;20024;-50
2021/12/09 06:34:29;;;;;;;36.88;17.67;;;;;;;-4.72;74.27;93010.50;5102876;28;20035;-48
2021/12/09 06:36:55;;;;;;;38.58;20.42;;;;;;;-4.65;74.57;93004.00;5101429;28;20123;-47
2021/12/09 06:39:21;;;;;;;41.92;20.98;;;;;;;-4.58;74.68;93009.03;5102667;28;20076;-48
2021/12/09 06:41:46;;;;;;;37.60;19.00;;;;;;;-4.82;75.33;93006.41;5104337;28;20031;-48
2021/12/09 06:44:12;;;;;;;48.58;23.30;;;;;;;-4.89;75.58;93012.13;5103576;28;20040;-48
2021/12/09 06:46:37;;;;;;;57.08;24.27;;;;;;;-5.04;74.78;93005.22;5102192;28;20112;-45
2021/12/09 06:49:04;;;;;;;36.53;19.05;;;;;;;-5.39;74.90;92999.63;5102444;28;20469;-48
2021/12/09 06:51:30;;;;;;;26.40;14.35;;;;;;;-5.37;75.14;92994.53;5103109;28;20404;-47
2021/12/09 06:53:56;;;;;;;26.48;12.40;;;;;;;-5.24;76.94;92981.59;5103656;28;20114;-46
2021/12/09 06:56:23;;;;;;;24.23;13.63;;;;;;;-4.96;76.78;92988.25;5104531;28;20046;-47
2021/12/09 06:58:48;;;;;;;28.27;11.45;;;;;;;-4.93;77.25;92962.38;5103336;28;20043;-46
2021/12/09 07:01:14;;;;;;;24.27;13.23;;;;;;;-4.58;77.80;92984.81;5104727;28;20051;-46
2021/12/09 07:03:40;;;;;;;29.98;17.05;;;;;;;-4.42;76.92;92989.00;5103863;28;20416;-46
2021/12/09 07:06:08;;;;;;;25.85;15.65;;;;;;;-4.28;76.65;92982.84;5101363;28;20036;-46
2021/12/09 07:08:38;;;;;;;33.70;19.97;;;;;;;-4.31;76.89;92976.44;5103318;28;20024;-44
2021/12/09 07:11:04;;;;;;;50.78;25.48;;;;;;;-4.29;76.69;92982.13;5103576;28;20438;-45
2021/12/09 07:13:31;;;;;;;41.70;21.90;;;;;;;-4.28;77.31;92978.22;5105712;28;20062;-48
2021/12/09 07:15:59;;;;;;;51.72;28.23;;;;;;;-4.07;76.88;92976.34;5100758;28;20036;-49
2021/12/09 07:18:25;;;;;;;55.58;29.65;;;;;;;-3.95;76.32;92975.31;5097595;28;20030;-48
2021/12/09 07:20:54;;;;;;;39.53;20.35;;;;;;;-3.79;75.81;92974.81;5099020;28;20028;-46
2021/12/09 07:23:19;;;;;;;;;;;;;;;-3.63;76.25;92970.84;5101359;28;20032;-46
2021/12/09 07:25:45;;;;;;;30.65;16.75;;;;;;;-3.67;76.35;92964.91;5099602;28;20381;-50
2021/12/09 07:28:10;;;;;;;29.77;16.92;;;;;;;-3.53;76.01;92972.97;5099970;28;20127;-46
2021/12/09 07:30:36;;;;;;;27.90;15.57;;;;;;;-3.49;75.43;92976.22;5098944;28;20027;-48
2021/12/09 07:33:02;;;;;;;18.50;10.18;;;;;;;-3.55;74.63;92986.19;5100939;28;20102;-48
2021/12/09 07:35:30;;;;;;;19.23;10.55;;;;;;;-3.71;75.54;92986.69;5101392;28;20425;-48
2021/12/09 07:38:00;;;;;;;24.13;12.20;;;;;;;-3.88;75.61;92975.66;5100916;28;20031;-47
2021/12/09 07:40:25;;;;;;;15.43;10.20;;;;;;;-3.82;76.67;92989.22;5101435;28;20036;-48
2021/12/09 07:42:51;;;;;;;19.65;11.18;;;;;;;-3.49;76.92;92975.47;5100879;28;20486;-47
2021/12/09 07:45:18;;;;;;;20.92;11.50;;;;;;;-2.73;76.69;92985.00;5100336;28;20059;-47
2021/12/09 07:47:45;;;;;;;20.90;11.82;;;;;;;-1.81;74.80;92986.34;5101153;28;20023;-46
2021/12/09 07:50:16;;;;;;;21.63;12.90;;;;;;;-0.67;70.46;92977.13;5100512;28;20027;-47
2021/12/09 07:52:43;;;;;;;20.77;12.13;;;;;;;0.32;67.55;92974.56;5098586;28;20055;-48
2021/12/09 07:55:10;;;;;;;19.67;12.05;;;;;;;1.72;62.67;92972.91;5100253;28;20036;-46
2021/12/09 07:57:36;;;;;;;19.13;12.05;;;;;;;3.21;57.97;92979.13;5100796;28;20027;-48
2021/12/09 08:00:06;;;;;;;22.70;15.20;;;;;;;2.82;58.44;92980.25;5098948;28;20166;-46
2021/12/09 08:02:32;;;;;;;15.63;11.88;;;;;;;4.10;55.04;92984.94;5096282;28;20028;-46
2021/12/09 08:04:57;;;;;;;17.83;12.23;;;;;;;5.35;52.69;92990.84;5099105;28;20409;-46
2021/12/09 08:07:24;;;;;;;19.88;12.32;;;;;;;5.88;49.63;92985.38;5098885;28;20501;-46
2021/12/09 08:09:51;;;;;;;16.35;11.57;;;;;;;6.69;48.24;92977.84;5100061;28;20110;-47
2021/12/09 08:12:17;;;;;;;16.52;11.80;;;;;;;7.84;46.50;92978.81;5097261;28;20031;-46
2021/12/09 08:14:43;;;;;;;17.58;13.57;;;;;;;8.92;43.18;92971.13;5097933;28;20053;-48
2021/12/09 08:17:12;;;;;;;19.15;13.82;;;;;;;9.87;42.00;92972.84;5099038;28;20023;-45
2021/12/09 08:19:38;;;;;;;15.98;12.55;;;;;;;11.13;39.98;92967.84;5100353;28;20024;-48
2021/12/09 08:22:04;;;;;;;19.83;11.93;;;;;;;12.01;37.68;92974.44;5097998;28;20023;-48
2021/12/09 08:24:30;;;;;;;17.45;13.07;;;;;;;12.41;36.37;92976.94;5097032;28;20032;-51
2021/12/09 08:26:55;;;;;;;19.85;13.85;;;;;;;12.37;34.25;92974.56;5099682;28;20035;-51
2021/12/09 08:29:21;;;;;;;16.20;13.02;;;;;;;12.61;35.03;92978.53;5096905;28;20027;-46
2021/12/09 08:31:46;;;;;;;21.80;13.77;;;;;;;12.94;34.27;92968.66;5100261;28;20051;-49
2021/12/09 08:34:12;;;;;;;21.98;14.35;;;;;;;12.97;33.64;92952.94;5100277;28;20542;-49
2021/12/09 08:36:38;;;;;;;24.23;18.23;;;;;;;12.10;35.10;92955.16;5099449;28;20043;-49
2021/12/09 08:39:04;;;;;;;31.90;24.73;;;;;;;11.03;37.63;92959.44;5098537;28;20153;-49
2021/12/09 08:41:29;;;;;;;41.42;29.67;;;;;;;11.73;37.07;92945.22;5095934;28;20040;-49
2021/12/09 08:43:55;;;;;;;90.18;56.60;;;;;;;12.57;36.31;92947.75;5095373;28;20042;-49
2021/12/09 08:46:21;;;;;;;58.40;37.65;;;;;;;13.68;34.42;92946.63;5099055;28;20044;-48
2021/12/09 08:48:47;;;;;;;44.22;28.73;;;;;;;14.21;33.79;92939.38;5097651;28;20032;-50
2021/12/09 08:51:13;;;;;;;28.48;20.67;;;;;;;15.02;31.74;92941.03;5096866;28;20065;-47
2021/12/09 08:53:38;;;;;;;26.95;19.80;;;;;;;15.27;31.34;92943.41;5097870;28;20818;-49
2021/12/09 08:56:04;;;;;;;24.50;19.02;;;;;;;15.18;32.24;92941.41;5095492;28;20031;-49
2021/12/09 08:58:30;;;;;;;26.13;21.02;;;;;;;15.41;31.51;92941.59;5096069;28;20557;-50
2021/12/09 09:00:58;;;;;;;24.55;17.52;;;;;;;15.59;31.24;92931.00;5096136;28;20542;-48
2021/12/09 09:03:24;;;;;;;19.70;16.13;;;;;;;15.55;31.03;92947.44;5095479;28;20100;-48
2021/12/09 09:05:53;;;;;;;19.35;13.02;;;;;;;16.05;30.78;92939.63;5096887;28;20464;-52
2021/12/09 09:08:19;;;;;;;16.95;13.70;;;;;;;16.31;29.90;92933.00;5096766;28;20097;-52
2021/12/09 09:10:45;;;;;;;16.00;13.43;;;;;;;16.26;29.49;92941.69;5097931;28;20048;-49
2021/12/09 09:13:13;;;;;;;19.35;14.48;;;;;;;15.65;31.43;92925.84;5096932;28;20032;-52
2021/12/09 09:15:39;;;;;;;25.23;20.05;;;;;;;14.79;32.95;92929.66;5096717;28;20071;-47
2021/12/09 09:18:05;;;;;;;27.25;21.45;;;;;;;13.95;34.24;92923.56;5097550;28;20020;-48
2021/12/09 09:20:32;;;;;;;26.02;20.17;;;;;;;12.95;35.88;92923.00;5098675;28;20031;-48
2021/12/09 09:22:58;;;;;;;25.55;19.27;;;;;;;11.59;38.08;92935.00;5100739;28;20085;-53
2021/12/09 09:25:29;;;;;;;21.38;16.52;;;;;;;10.87;40.32;92930.44;5098432;28;20028;-52
2021/12/09 09:27:56;;;;;;;21.88;16.88;;;;;;;11.07;41.15;92926.63;5098254;28;20103;-49
2021/12/09 09:30:22;;;;;;;31.75;22.77;;;;;;;10.98;42.16;92923.75;5097632;28;20555;-50
2021/12/09 09:32:49;;;;;;;20.13;15.95;;;;;;;11.62;41.52;92917.28;5098423;28;20035;-52
2021/12/09 09:35:16;;;;;;;26.15;18.95;;;;;;;11.62;42.23;92918.03;5097834;28;20024;-49
2021/12/09 09:37:42;;;;;;;29.17;20.00;;;;;;;10.78;44.68;92906.22;5100851;28;20027;-54
2021/12/09 09:40:11;;;;;;;17.85;14.75;;;;;;;11.32;43.95;92907.25;5098307;28;20038;-50
2021/12/09 09:45:08;;;;;;;14.95;11.48;;;;;;;11.92;43.31;92917.00;5094831;28;19921;-50
2021/12/09 09:47:34;;;;;;;12.55;9.38;;;;;;;12.37;42.27;92916.44;5097777;28;20107;-50
2021/12/09 09:49:59;;;;;;;9.00;7.30;;;;;;;12.74;41.28;92904.13;5097163;28;20035;-52
2021/12/09 09:52:26;;;;;;;10.65;8.02;;;;;;;12.34;42.44;92901.00;5096072;28;20441;-48
2021/12/09 09:54:54;;;;;;;20.67;15.73;;;;;;;11.38;44.77;92891.16;5097673;28;20124;-53
2021/12/09 09:57:19;;;;;;;98.35;42.03;;;;;;;10.66;47.14;92889.38;5098657;28;20089;-52
2021/12/09 09:59:45;;;;;;;8.73;6.55;;;;;;;11.05;46.44;92845.59;5096255;28;20466;-52
2021/12/09 10:02:12;;;;;;;8.02;6.32;;;;;;;11.84;44.62;92834.09;5099594;28;20469;-50
2021/12/09 10:04:59;;;;;;;6.63;5.13;;;;;;;12.56;43.59;92861.16;5097390;28;20050;-51
2021/12/09 10:07:25;;;;;;;7.18;5.55;;;;;;;12.47;43.43;92853.56;5100354;28;20035;-54
2021/12/09 10:09:52;;;;;;;6.25;5.07;;;;;;;12.29;42.45;92854.19;5097411;28;20074;-57
2021/12/09 10:12:18;;;;;;;11.07;8.68;;;;;;;11.36;45.11;92844.03;5094589;28;20038;-50
2021/12/09 10:14:50;;;;;;;10.80;6.53;;;;;;;10.49;47.21;92847.91;5100383;28;20031;-51
2021/12/09 10:17:20;;;;;;;8.13;5.70;;;;;;;9.11;49.82;92851.06;5098035;28;20393;-47
2021/12/09 10:19:46;;;;;;;7.88;5.43;;;;;;;8.99;50.97;92838.22;5099950;28;20039;-51
2021/12/09 10:22:17;;;;;;;6.45;5.40;;;;;;;9.16;50.15;92841.13;5099148;28;20409;-52
2021/12/09 10:24:45;;;;;;;7.60;5.75;;;;;;;9.32;51.06;92825.28;5100430;28;20062;-60
2021/12/09 10:27:28;;;;;;;6.63;4.63;;;;;;;10.30;48.46;92816.56;5098248;28;20408;-59
2021/12/09 10:29:59;;;;;;;7.90;5.47;;;;;;;10.89;47.22;92816.66;5097498;28;20035;-57
2021/12/09 10:32:30;;;;;;;8.38;6.20;;;;;;;11.38;46.62;92822.06;5096131;28;20084;-54
2021/12/09 10:34:56;;;;;;;7.85;5.63;;;;;;;11.78;45.47;92814.25;5099299;28;20118;-58
2021/12/09 10:37:29;;;;;;;7.22;5.35;;;;;;;11.63;46.08;92808.88;5099110;28;20039;-54
2021/12/09 10:39:58;;;;;;;8.95;6.38;;;;;;;11.71;46.39;92811.59;5096811;28;20036;-58
2021/12/09 10:42:36;;;;;;;8.32;6.20;;;;;;;12.44;44.29;92817.97;5101444;28;20084;-54
2021/12/09 10:45:04;;;;;;;12.63;8.52;;;;;;;13.37;42.65;92812.59;5099117;28;20047;-53
2021/12/09 10:52:55;;;;;;;9.73;7.38;;;;;;;14.60;39.78;92812.28;5099127;28;20035;-55
2021/12/09 10:55:35;;;;;;;8.13;5.88;;;;;;;14.80;39.66;92805.34;5097537;28;20040;-51
2021/12/09 10:58:07;;;;;;;18.00;13.07;;;;;;;14.51;40.33;92808.22;5097804;28;20051;-50
2021/12/09 11:00:48;;;;;;;7.93;5.30;;;;;;;14.29;39.13;92798.38;5097015;28;20051;-50
2021/12/09 11:03:21;;;;;;;9.15;7.07;;;;;;;14.39;39.51;92799.06;5102090;28;20045;-48
2021/12/09 11:06:07;;;;;;;8.65;7.75;;;;;;;14.16;40.00;92793.25;5096218;28;20043;-53
2021/12/09 11:08:35;;;;;;;12.93;6.95;;;;;;;15.45;39.17;92788.16;5102457;28;20465;-59
2021/12/09 11:11:15;;;;;;;7.18;5.50;;;;;;;16.33;36.80;92793.81;5100912;28;20028;-53
2021/12/09 11:13:45;;;;;;;9.00;6.93;;;;;;;16.40;35.21;92790.09;5100390;28;20032;-52
2021/12/09 11:16:14;;;;;;;12.70;7.90;;;;;;;16.59;36.67;92789.16;5098999;28;20417;-47
2021/12/09 11:18:42;;;;;;;12.95;10.07;;;;;;;16.36;36.86;92789.84;5100057;28;20027;-59
2021/12/09 11:21:14;;;;;;;20.77;14.13;;;;;;;15.90;37.21;92796.00;5101013;28;20044;-55
2021/12/09 11:23:49;;;;;;;7.88;6.13;;;;;;;15.00;38.35;92807.44;5101660;28;20030;-48
2021/12/09 11:26:31;;;;;;;7.82;5.30;;;;;;;13.95;40.51;92807.75;5102984;28;20497;-51
2021/12/09 11:29:01;;;;;;;11.05;6.05;;;;;;;13.92;39.82;92814.50;5102413;28;20031;-52
2021/12/09 11:31:31;;;;;;;6.40;4.80;;;;;;;13.95;40.62;92818.84;5103483;28;20119;-51